• pl
  • eng

Awiacja
WIADOMOŚCI
ostatnia aktualizacja: 08.05.2017 13:35
Szanowni Państwo,

Instytut Meteorologii i Gospodarki Wodnej - Państwowy Instytut Badawczy, poszukuje kandydatów do pracy na stanowisku administracyjnym - specjalista w Centrum Meteorologicznej Osłony Lotnictwa Cywilnego - Wydziale Organizacji Meteorologicznej Osłony Lotnictwa Cywilnego w Warszawie. Szczegółowe informacje znajdują się tutaj.

TAF FT 13:30 29.06.2017
  • WIND
  • SIGNIFICANT EURO
  • SIGNIFICANT
  • SIGMET
  • AIRMET
  • TAF FC
  • TAF FT
  • METAR GG30
  • METAR GG00


TAF EPBY 291130Z 2912/3012 12010KT 9999 SCT035
TEMPO 2912/2921 VRB25G45KT 3000 TSRA BKN020CB
PROB40 TEMPO 2912/2916 1000 TSGR
BECMG 2921/2924 22015KT BKN014
TEMPO 3000/3010 24020G32KT 3000 RA BKN005
PROB40 TEMPO 3010/3012 SHRA BKN020CB=

TAF EPGD 291130Z 2912/3012 06008KT 9999 BKN010
BECMG 2912/2914 13010KT SCT020
TEMPO 2914/2922 SHRA BKN020CB
PROB40 TEMPO 2914/2920 VRB15G30KT 2000 TSRA BKN014CB
PROB40 2921/3008 BKN007
BECMG 3006/3008 24012KT
TEMPO 3008/3012 24015G30KT SHRA BKN014CB
PROB40 TEMPO 3010/3012 3000 TSRA=

TAF EPKK 291130Z 2912/3012 18012KT CAVOK
TEMPO 2912/2920 VRB20G45KT 2000 TSRAGR BKN030CB
PROB30 TEMPO 2912/2920 BKN013
PROB40 TEMPO 2920/3012 4000 SHRA BKN020CB
BECMG 3007/3010 25015G30KT=

TAF EPKT 291130Z 2912/3012 19015G30KT CAVOK
TEMPO 2912/2920 VRB20G45KT 2000 TSRAGR BKN025CB
PROB30 TEMPO 2912/2920 BKN013
PROB40 TEMPO 2920/3012 4000 SHRA BKN020CB
BECMG 3007/3010 25015G30KT=

TAF EPLL 291130Z 2912/3012 20010KT CAVOK
TEMPO 2912/2918 4000 SHRA BKN030CB
PROB40 TEMPO 2912/2916 VRB15G32KT 2500 TSRA
PROB40 TEMPO 2918/2924 SHRA BKN014 BKN025CB
PROB40 3000/3004 BKN010=

TAF EPMO 291130Z 2912/3012 19010KT CAVOK
TEMPO 2912/2920 4000 SHRA BKN030CB
PROB40 TEMPO 2912/2917 VRB15G32KT 2500 TSRAGR BKN015CB
PROB40 2923/3005 BKN012=

TAF EPPO 291130Z 2912/3012 14010KT 9999 SCT040
TEMPO 2912/2918 SHRA BKN040CB
PROB40 TEMPO 2912/2918 VRB18G40KT 1400 +TSRAGR BKN009 BKN020CB
BECMG 2918/2920 24015G25KT -RA BKN014
PROB40 TEMPO 2920/3012 26020G40KT 4000 RA BKN007=

TAF EPRZ 291130Z 2912/3012 19015G30KT 9999 SCT040
TEMPO 2912/2920 VRB20G45KT 2000 TSRAGR BKN030CB
PROB30 TEMPO 2912/2920 BKN013
PROB40 TEMPO 2920/3012 4000 SHRA BKN020CB
BECMG 3007/3010 25015G30KT=

TAF EPSC 291130Z 2912/3012 VRB05KT 9999 BKN020
TEMPO 2912/2921 VRB20G35KT 2000 TSRA BKN020CB
BECMG 3000/3003 22015KT BKN014
TEMPO 3000/3012 24020G32KT SHRA BKN012CB
PROB40 TEMPO 3006/3012 RA BKN007=

TAF EPWA 291130Z 2912/3012 19010KT CAVOK
TEMPO 2912/2920 4000 SHRA BKN030CB
PROB40 TEMPO 2912/2916 VRB15G32KT 2500 TSRAGR BKN015CB
PROB40 2923/3005 BKN012=

TAF EPWR 291130Z 2912/3012 17015KT 9999 SCT040
TEMPO 2912/2918 17020G40KT SHRA BKN040CB
PROB30 TEMPO 2912/2918 1400 +TSRAGR BKN009 BKN020CB
BECMG 2918/2920 24010KT
TEMPO 2920/3012 24020G38KT 4000 RA BR BKN008 BKN040=
Awiacja.imgw.pl jest pogodowym serwisem informacyjnym
Instytutu Meteorologii i Gospodarki Wodnej Państwowego Instytutu Badawczego.
Copyright IMGW PIB 2009-2011© Wszelkie prawa zastrzeżone.